createdAt,value
2022-10-14T00:01:30.754Z,97.08
2022-10-14T00:11:34.537Z,97.53
2022-10-14T00:22:00.066Z,98.15
2022-10-14T00:32:07.691Z,99.54
2022-10-14T00:42:18.301Z,100.00
2022-10-14T00:52:22.577Z,100.00
2022-10-14T01:02:29.783Z,100.00
2022-10-14T01:12:50.866Z,100.00
2022-10-14T01:23:06.948Z,100.00
2022-10-14T01:33:17.057Z,100.00
2022-10-14T01:43:27.962Z,100.00
2022-10-14T01:53:34.495Z,100.00
2022-10-14T02:03:42.122Z,100.00
2022-10-14T02:13:55.606Z,100.00
2022-10-14T02:24:08.934Z,100.00
2022-10-14T02:34:17.178Z,100.00
2022-10-14T02:44:25.631Z,100.00
2022-10-14T02:54:27.817Z,100.00
2022-10-14T03:04:37.180Z,100.00
2022-10-14T03:14:39.967Z,100.00
2022-10-14T03:24:45.745Z,100.00
2022-10-14T03:35:12.796Z,100.00
2022-10-14T03:45:19.279Z,100.00
2022-10-14T03:55:23.337Z,100.00
2022-10-14T04:05:34.355Z,100.00
2022-10-14T04:15:46.460Z,100.00
2022-10-14T04:25:56.153Z,100.00
2022-10-14T04:36:06.097Z,100.00
2022-10-14T04:46:14.361Z,100.00
2022-10-14T04:56:21.278Z,100.00
2022-10-14T05:06:35.238Z,100.00
2022-10-14T05:16:40.274Z,100.00
2022-10-14T05:26:47.088Z,100.00
2022-10-14T05:36:54.706Z,100.00
2022-10-14T05:47:02.013Z,100.00
2022-10-14T05:57:09.500Z,100.00
2022-10-14T06:07:14.031Z,100.00
2022-10-14T06:17:20.946Z,100.00
2022-10-14T06:27:28.201Z,100.00
2022-10-14T06:37:31.456Z,100.00
2022-10-14T06:47:36.076Z,100.00
2022-10-14T06:57:45.907Z,100.00
2022-10-14T07:07:49.260Z,100.00
2022-10-14T07:17:53.707Z,100.00
2022-10-14T07:27:58.353Z,100.00
2022-10-14T07:38:00.917Z,100.00
2022-10-14T07:48:02.962Z,100.00
2022-10-14T07:58:11.823Z,100.00
2022-10-14T08:08:25.754Z,100.00
2022-10-14T08:18:28.748Z,100.00
2022-10-14T08:28:33.458Z,99.63
2022-10-14T08:38:38.217Z,97.79
2022-10-14T08:48:42.618Z,95.55
2022-10-14T08:58:50.704Z,94.17
2022-10-14T09:08:58.762Z,91.53
2022-10-14T09:19:05.498Z,88.85
2022-10-14T09:29:27.226Z,87.55
2022-10-14T09:39:38.333Z,86.59
2022-10-14T09:49:43.074Z,86.41
2022-10-14T09:59:55.879Z,87.97
2022-10-14T10:10:05.776Z,89.50
2022-10-14T10:20:36.879Z,89.00
2022-10-14T10:31:00.284Z,89.04
2022-10-14T10:41:20.659Z,89.08
2022-10-14T10:51:29.512Z,87.79
2022-10-14T11:02:01.135Z,86.68
2022-10-14T11:12:24.039Z,85.79
2022-10-14T11:22:46.258Z,85.71
2022-10-14T11:33:13.126Z,85.28
2022-10-14T11:43:42.212Z,85.71
2022-10-14T11:54:01.416Z,85.86
2022-10-14T12:04:34.372Z,86.32
2022-10-14T12:14:49.663Z,86.35
2022-10-14T12:24:56.566Z,86.08
2022-10-14T12:35:01.973Z,85.46
2022-10-14T12:45:18.657Z,85.16
2022-10-14T12:55:23.242Z,85.60
2022-10-14T13:05:51.605Z,86.33
2022-10-14T13:16:00.635Z,88.06
2022-10-14T13:26:18.797Z,89.15
2022-10-14T13:37:00.594Z,88.84
2022-10-14T13:47:04.989Z,89.31
2022-10-14T14:18:01.351Z,90.57
2022-10-14T14:28:08.301Z,90.85
2022-10-14T14:38:31.541Z,91.05
2022-10-14T14:48:34.490Z,91.66
2022-10-14T14:58:38.987Z,91.34
2022-10-14T15:08:55.121Z,90.84
2022-10-14T15:19:24.586Z,91.07
2022-10-14T15:29:28.913Z,91.73
2022-10-14T15:39:36.888Z,92.16
2022-10-14T15:49:41.875Z,92.53
2022-10-14T15:59:48.886Z,93.12
2022-10-14T16:09:53.953Z,94.06
2022-10-14T16:20:02.920Z,95.39
2022-10-14T16:30:12.224Z,96.54
2022-10-14T16:40:14.851Z,97.89
2022-10-14T16:50:17.068Z,99.18
2022-10-14T17:00:20.352Z,100.00
2022-10-14T17:10:22.706Z,100.00
2022-10-14T17:20:27.553Z,100.00
2022-10-14T17:30:30.821Z,100.00
2022-10-14T17:40:33.979Z,100.00
2022-10-14T17:50:38.279Z,100.00
2022-10-14T18:00:45.535Z,100.00
2022-10-14T18:10:49.819Z,100.00
2022-10-14T18:20:57.236Z,100.00
2022-10-14T18:31:16.225Z,100.00
2022-10-14T18:41:18.435Z,100.00
2022-10-14T18:51:27.083Z,100.00
2022-10-14T19:01:30.242Z,100.00
2022-10-14T19:11:34.350Z,100.00
2022-10-14T19:21:39.030Z,100.00
2022-10-14T19:31:45.301Z,100.00
2022-10-14T19:41:47.629Z,100.00
2022-10-14T19:51:52.176Z,100.00
2022-10-14T20:01:56.500Z,100.00
2022-10-14T20:11:59.582Z,100.00
2022-10-14T20:22:09.087Z,100.00
2022-10-14T20:32:17.083Z,100.00
2022-10-14T20:42:23.868Z,100.00
2022-10-14T20:52:29.214Z,100.00
2022-10-14T21:02:34.120Z,100.00
2022-10-14T21:12:36.956Z,100.00
2022-10-14T21:22:42.042Z,100.00
2022-10-14T21:32:44.136Z,100.00
2022-10-14T21:42:48.395Z,100.00
2022-10-14T21:52:55.487Z,100.00
2022-10-14T22:02:58.737Z,100.00
2022-10-14T22:13:10.638Z,100.00
2022-10-14T22:23:12.637Z,100.00
2022-10-14T22:33:19.273Z,100.00
2022-10-14T22:43:21.411Z,100.00
2022-10-14T22:53:28.524Z,100.00
2022-10-14T23:03:31.574Z,100.00
2022-10-14T23:13:38.936Z,100.00
2022-10-14T23:23:44.133Z,100.00
2022-10-14T23:33:52.661Z,100.00
2022-10-14T23:43:56.426Z,100.00
2022-10-14T23:54:02.425Z,100.00
